createdAt,value
2018-01-25T00:02:26.310Z,19.00
2018-01-25T00:04:53.077Z,19.60
2018-01-25T00:07:19.762Z,18.80
2018-01-25T00:09:46.483Z,17.73
2018-01-25T00:12:13.234Z,19.25
2018-01-25T00:14:40.659Z,18.83
2018-01-25T00:17:07.342Z,19.42
2018-01-25T00:19:34.846Z,19.58
2018-01-25T00:22:01.574Z,18.52
2018-01-25T00:24:30.391Z,18.12
2018-01-25T00:26:57.132Z,18.50
2018-01-25T00:29:23.818Z,19.00
2018-01-25T00:31:51.348Z,19.25
2018-01-25T00:34:18.126Z,19.42
2018-01-25T00:36:44.823Z,18.98
2018-01-25T00:39:11.550Z,19.05
2018-01-25T00:41:38.303Z,20.67
2018-01-25T00:44:05.015Z,19.83
2018-01-25T00:46:32.431Z,18.70
2018-01-25T00:48:59.132Z,20.12
2018-01-25T00:51:25.825Z,18.75
2018-01-25T00:53:52.518Z,17.50
2018-01-25T00:56:19.260Z,19.70
2018-01-25T00:58:46.667Z,17.48
2018-01-25T01:01:13.317Z,19.65
2018-01-25T01:03:40.005Z,20.48
2018-01-25T01:06:07.405Z,20.55
2018-01-25T01:08:34.084Z,19.60
2018-01-25T01:11:01.564Z,18.52
2018-01-25T01:13:28.217Z,20.92
2018-01-25T01:15:54.898Z,18.65
2018-01-25T01:18:21.593Z,20.30
2018-01-25T01:20:49.025Z,20.23
2018-01-25T01:23:15.689Z,18.52
2018-01-25T01:25:43.154Z,20.95
2018-01-25T01:28:10.576Z,20.15
2018-01-25T01:30:37.274Z,20.45
2018-01-25T01:33:04.011Z,21.15
2018-01-25T01:35:30.704Z,20.33
2018-01-25T01:37:57.438Z,21.10
2018-01-25T01:40:24.143Z,20.17
2018-01-25T01:42:51.125Z,21.85
2018-01-25T01:45:17.790Z,23.02
2018-01-25T01:47:44.554Z,21.37
2018-01-25T01:50:12.001Z,22.00
2018-01-25T01:52:38.742Z,21.40
2018-01-25T01:55:05.487Z,20.55
2018-01-25T01:57:32.148Z,21.37
2018-01-25T01:59:59.606Z,21.42
2018-01-25T02:02:27.090Z,21.40
2018-01-25T02:04:53.758Z,21.48
2018-01-25T02:07:20.415Z,20.92
2018-01-25T02:09:47.140Z,23.45
2018-01-25T02:12:13.839Z,25.40
2018-01-25T02:14:41.234Z,25.65
2018-01-25T02:17:07.942Z,25.58
2018-01-25T02:19:34.602Z,24.27
2018-01-25T02:22:02.030Z,23.95
2018-01-25T02:24:28.754Z,23.92
2018-01-25T02:26:55.459Z,22.73
2018-01-25T02:29:22.099Z,22.98
2018-01-25T02:31:48.799Z,21.48
2018-01-25T02:34:15.505Z,22.83
2018-01-25T02:36:42.182Z,21.73
2018-01-25T02:39:14.026Z,21.52
2018-01-25T02:41:40.694Z,22.95
2018-01-25T02:44:07.437Z,21.55
2018-01-25T02:46:34.157Z,23.20
2018-01-25T02:49:00.821Z,25.52
2018-01-25T02:51:27.564Z,24.73
2018-01-25T02:53:54.317Z,22.13
2018-01-25T02:56:21.063Z,25.17
2018-01-25T02:58:47.735Z,22.70
2018-01-25T03:01:15.207Z,25.83
2018-01-25T03:03:41.975Z,23.05
2018-01-25T03:06:08.646Z,23.52
2018-01-25T03:08:35.364Z,24.05
2018-01-25T03:11:02.035Z,23.40
2018-01-25T03:13:29.634Z,24.58
2018-01-25T03:15:56.364Z,21.62
2018-01-25T03:18:23.790Z,24.77
2018-01-25T03:20:50.455Z,24.87
2018-01-25T03:23:17.147Z,23.30
2018-01-25T03:25:43.839Z,24.58
2018-01-25T03:28:10.540Z,24.30
2018-01-25T03:30:37.270Z,24.60
2018-01-25T03:33:03.961Z,26.70
2018-01-25T03:35:30.706Z,26.42
2018-01-25T03:37:57.518Z,25.45
2018-01-25T03:40:24.233Z,26.17
2018-01-25T03:42:51.187Z,25.55
2018-01-25T03:45:22.951Z,26.33
2018-01-25T03:47:49.726Z,24.40
2018-01-25T03:50:16.410Z,28.48
2018-01-25T03:52:43.138Z,25.05
2018-01-25T03:55:09.849Z,25.42
2018-01-25T03:57:36.509Z,26.42
2018-01-25T04:00:03.302Z,24.63
2018-01-25T04:02:30.731Z,26.23
2018-01-25T04:04:57.443Z,24.35
2018-01-25T04:07:24.201Z,24.05
2018-01-25T04:09:50.918Z,26.65
2018-01-25T04:12:17.622Z,25.73
2018-01-25T04:14:44.327Z,25.45
2018-01-25T04:17:11.062Z,25.65
2018-01-25T04:19:37.767Z,26.35
2018-01-25T04:22:05.209Z,27.37
2018-01-25T04:24:31.902Z,27.13
2018-01-25T04:26:58.569Z,26.50
2018-01-25T04:29:25.300Z,28.23
2018-01-25T04:31:51.987Z,27.75
2018-01-25T04:34:19.429Z,28.98
2018-01-25T04:36:46.180Z,28.12
2018-01-25T04:39:12.862Z,26.87
2018-01-25T04:41:39.544Z,26.40
2018-01-25T04:44:06.246Z,26.27
2018-01-25T04:46:32.906Z,30.12
2018-01-25T04:48:59.595Z,27.40
2018-01-25T04:51:26.295Z,29.98
2018-01-25T04:53:52.994Z,29.00
2018-01-25T04:56:20.409Z,26.67
2018-01-25T04:58:47.102Z,26.73
2018-01-25T05:01:14.568Z,27.52
2018-01-25T05:03:41.991Z,28.50
2018-01-25T05:06:08.693Z,25.60
2018-01-25T05:08:35.382Z,29.00
2018-01-25T05:11:02.137Z,27.02
2018-01-25T05:13:28.841Z,26.35
2018-01-25T05:15:55.579Z,25.60
2018-01-25T05:18:22.367Z,27.92
2018-01-25T05:20:49.108Z,28.40
2018-01-25T05:23:15.845Z,27.15
2018-01-25T05:25:42.604Z,27.58
2018-01-25T05:28:09.664Z,28.33
2018-01-25T05:30:37.168Z,28.40
2018-01-25T05:33:03.907Z,29.33
2018-01-25T05:35:30.666Z,29.27
2018-01-25T05:37:57.350Z,30.08
2018-01-25T05:40:24.034Z,29.65
2018-01-25T05:42:50.771Z,30.90
2018-01-25T05:45:17.478Z,34.45
2018-01-25T05:47:44.205Z,29.48
2018-01-25T05:50:10.891Z,29.02
2018-01-25T05:52:38.368Z,29.60
2018-01-25T05:55:05.062Z,29.00
2018-01-25T05:57:31.801Z,26.67
2018-01-25T05:59:58.496Z,27.13
2018-01-25T06:02:25.176Z,28.62
2018-01-25T06:04:51.883Z,27.83
2018-01-25T06:07:18.595Z,29.10
2018-01-25T06:09:45.261Z,28.98
2018-01-25T06:12:12.698Z,28.08
2018-01-25T06:14:40.166Z,30.25
2018-01-25T06:17:07.597Z,29.37
2018-01-25T06:19:34.314Z,30.62
2018-01-25T06:22:01.000Z,31.85
2018-01-25T06:24:27.696Z,30.00
2018-01-25T06:26:54.526Z,31.10
2018-01-25T06:29:21.265Z,29.77
2018-01-25T06:31:48.681Z,29.58
2018-01-25T06:34:15.406Z,42.65
2018-01-25T06:36:42.073Z,38.25
2018-01-25T06:39:08.766Z,32.58
2018-01-25T06:41:35.463Z,28.83
2018-01-25T06:44:02.137Z,29.37
2018-01-25T06:46:28.862Z,29.75
2018-01-25T06:48:57.354Z,29.27
2018-01-25T06:51:24.780Z,28.55
2018-01-25T06:53:51.476Z,33.60
2018-01-25T06:56:18.211Z,35.15
2018-01-25T06:58:45.635Z,30.65
2018-01-25T07:01:12.344Z,30.65
2018-01-25T07:03:39.064Z,31.80
2018-01-25T07:06:05.829Z,31.87
2018-01-25T07:08:32.562Z,28.38
2018-01-25T07:10:59.278Z,26.60
2018-01-25T07:13:26.748Z,25.10
2018-01-25T07:15:54.191Z,24.58
2018-01-25T07:18:20.938Z,26.37
2018-01-25T07:20:48.362Z,23.35
2018-01-25T07:23:15.097Z,24.10
2018-01-25T07:25:41.813Z,22.70
2018-01-25T07:28:08.590Z,26.20
2018-01-25T07:30:35.347Z,24.58
2018-01-25T07:33:09.009Z,24.07
2018-01-25T07:35:35.725Z,23.23
2018-01-25T07:38:03.233Z,22.63
2018-01-25T07:40:29.964Z,24.00
2018-01-25T07:42:56.760Z,22.30
2018-01-25T07:45:23.514Z,23.50
2018-01-25T07:47:50.245Z,21.63
2018-01-25T07:50:17.004Z,20.83
2018-01-25T07:52:43.703Z,21.27
2018-01-25T07:55:10.418Z,20.80
2018-01-25T07:57:43.877Z,23.67
2018-01-25T08:00:10.600Z,24.93
2018-01-25T08:02:38.337Z,23.50
2018-01-25T08:05:09.281Z,22.50
2018-01-25T08:07:35.990Z,21.50
2018-01-25T08:10:02.772Z,19.93
2018-01-25T08:12:29.470Z,23.60
2018-01-25T08:14:56.273Z,23.17
2018-01-25T08:17:22.983Z,23.53
2018-01-25T08:19:50.501Z,23.77
2018-01-25T08:22:17.270Z,22.90
2018-01-25T08:24:43.975Z,23.67
2018-01-25T08:27:10.671Z,24.53
2018-01-25T08:29:37.424Z,24.77
2018-01-25T08:32:04.920Z,25.07
2018-01-25T08:34:31.614Z,25.53
2018-01-25T08:36:58.384Z,25.03
2018-01-25T08:39:25.863Z,23.93
2018-01-25T08:41:52.562Z,24.13
2018-01-25T08:44:19.252Z,23.87
2018-01-25T08:46:45.978Z,25.70
2018-01-25T08:49:12.688Z,24.57
2018-01-25T08:51:39.421Z,22.60
2018-01-25T08:54:06.113Z,22.40
2018-01-25T08:56:32.939Z,23.20
2018-01-25T08:59:00.386Z,24.20
2018-01-25T09:01:27.135Z,25.10
2018-01-25T09:03:53.923Z,25.00
2018-01-25T09:06:20.643Z,24.30
2018-01-25T09:08:48.079Z,23.77
2018-01-25T09:11:14.813Z,25.30
2018-01-25T09:13:41.494Z,23.20
2018-01-25T09:16:08.241Z,23.27
2018-01-25T09:18:36.660Z,23.50
2018-01-25T09:21:03.415Z,23.23
2018-01-25T09:23:30.148Z,21.80
2018-01-25T09:25:56.943Z,23.00
2018-01-25T09:28:24.461Z,22.07
2018-01-25T09:30:51.223Z,23.37
2018-01-25T09:33:17.976Z,22.50
2018-01-25T09:35:44.704Z,24.00
2018-01-25T09:38:11.440Z,22.70
2018-01-25T09:40:38.227Z,23.73
2018-01-25T09:43:05.731Z,22.03
2018-01-25T09:45:32.464Z,23.47
2018-01-25T09:47:59.204Z,23.50
2018-01-25T09:50:25.945Z,23.23
2018-01-25T09:55:26.234Z,23.20
2018-01-25T09:57:53.073Z,23.00
2018-01-25T10:00:20.261Z,24.77
2018-01-25T10:02:47.003Z,24.83
2018-01-25T10:05:13.726Z,23.40
2018-01-25T10:07:40.455Z,23.17
2018-01-25T10:10:07.270Z,24.27
2018-01-25T10:12:34.023Z,24.33
2018-01-25T10:15:00.766Z,25.17
2018-01-25T10:17:27.500Z,25.00
2018-01-25T10:19:54.952Z,24.87
2018-01-25T10:22:22.776Z,24.60
2018-01-25T10:24:49.553Z,26.07
2018-01-25T10:27:17.738Z,24.27
2018-01-25T10:29:45.261Z,24.73
2018-01-25T10:32:12.044Z,23.60
2018-01-25T10:34:39.527Z,23.47
2018-01-25T10:37:06.264Z,24.13
2018-01-25T10:39:33.866Z,21.77
2018-01-25T10:42:00.637Z,22.10
2018-01-25T10:44:27.330Z,23.00
2018-01-25T10:46:54.020Z,20.90
2018-01-25T10:49:20.852Z,22.50
2018-01-25T10:51:47.624Z,22.10
2018-01-25T10:54:14.391Z,21.53
2018-01-25T10:56:41.973Z,21.87
2018-01-25T10:59:08.729Z,21.80
2018-01-25T11:01:41.517Z,21.13
2018-01-25T11:04:08.279Z,22.27
2018-01-25T11:06:34.969Z,22.77
2018-01-25T11:09:02.593Z,22.07
2018-01-25T11:11:29.299Z,21.40
2018-01-25T11:13:55.997Z,21.80
2018-01-25T11:16:22.718Z,22.47
2018-01-25T11:18:49.397Z,24.57
2018-01-25T11:21:16.087Z,22.43
2018-01-25T11:23:42.785Z,21.70
2018-01-25T11:26:09.471Z,22.63
2018-01-25T11:28:36.127Z,21.67
2018-01-25T11:31:02.866Z,21.90
2018-01-25T11:33:29.546Z,20.50
2018-01-25T11:35:56.256Z,21.83
2018-01-25T11:38:22.936Z,21.23
2018-01-25T11:40:49.595Z,20.83
2018-01-25T11:43:17.021Z,21.00
2018-01-25T11:45:43.737Z,22.30
2018-01-25T11:48:10.452Z,20.23
2018-01-25T11:50:37.900Z,20.93
2018-01-25T11:53:05.318Z,19.97
2018-01-25T11:55:32.020Z,20.13
2018-01-25T11:57:59.545Z,20.07
2018-01-25T12:00:27.028Z,20.47
2018-01-25T12:02:54.426Z,19.27
2018-01-25T12:05:21.140Z,19.20
2018-01-25T12:07:48.745Z,20.10
2018-01-25T12:10:15.546Z,18.70
2018-01-25T12:12:42.981Z,21.30
2018-01-25T12:15:09.711Z,17.73
2018-01-25T12:17:36.393Z,19.73
2018-01-25T12:20:03.922Z,19.47
2018-01-25T12:22:30.610Z,19.33
2018-01-25T12:24:58.038Z,19.50
2018-01-25T12:27:26.457Z,20.10
2018-01-25T12:29:54.824Z,20.17
2018-01-25T12:32:23.298Z,19.57
2018-01-25T12:34:51.732Z,19.77
2018-01-25T12:37:20.088Z,20.10
2018-01-25T12:39:48.426Z,19.97
2018-01-25T12:42:15.102Z,20.77
2018-01-25T12:44:42.537Z,21.40
2018-01-25T12:47:09.300Z,20.23
2018-01-25T12:49:36.781Z,19.37
2018-01-25T12:52:03.476Z,18.60
2018-01-25T12:54:30.183Z,19.20
2018-01-25T12:56:56.882Z,19.17
2018-01-25T12:59:23.560Z,19.63
2018-01-25T13:01:50.348Z,19.60
2018-01-25T13:04:17.054Z,19.63
2018-01-25T13:06:43.791Z,20.40
2018-01-25T13:09:10.540Z,19.90
2018-01-25T13:11:37.228Z,20.83
2018-01-25T13:14:03.988Z,21.30
2018-01-25T13:16:30.731Z,20.33
2018-01-25T13:18:57.405Z,21.90
2018-01-25T13:21:24.120Z,23.03
2018-01-25T13:23:50.821Z,22.50
2018-01-25T13:26:17.554Z,23.80
2018-01-25T13:28:44.274Z,24.00
2018-01-25T13:31:11.752Z,23.13
2018-01-25T13:33:42.486Z,22.90
2018-01-25T13:36:09.178Z,24.70
2018-01-25T13:38:35.844Z,25.77
2018-01-25T13:41:03.295Z,24.80
2018-01-25T13:43:29.964Z,24.07
2018-01-25T13:45:57.479Z,26.43
2018-01-25T13:48:24.231Z,30.00
2018-01-25T13:50:50.929Z,29.90
2018-01-25T13:53:17.642Z,30.90
2018-01-25T13:55:45.157Z,27.37
2018-01-25T13:58:12.591Z,31.60
2018-01-25T14:00:39.370Z,30.67
2018-01-25T14:03:06.088Z,31.70
2018-01-25T14:05:32.765Z,30.83
2018-01-25T14:07:59.452Z,31.27
2018-01-25T14:10:26.971Z,31.50
2018-01-25T14:12:53.721Z,30.00
2018-01-25T14:15:20.427Z,34.60
2018-01-25T14:17:47.168Z,31.00
2018-01-25T14:20:13.947Z,33.00
2018-01-25T14:22:40.619Z,31.33
2018-01-25T14:25:08.085Z,33.53
2018-01-25T14:27:35.581Z,31.23
2018-01-25T14:30:02.378Z,31.33
2018-01-25T14:32:29.058Z,35.20
2018-01-25T14:34:55.726Z,32.03
2018-01-25T14:37:22.487Z,33.50
2018-01-25T14:39:49.170Z,32.93
2018-01-25T14:42:16.592Z,32.27
2018-01-25T14:44:43.325Z,33.93
2018-01-25T14:47:10.031Z,35.00
2018-01-25T14:49:36.723Z,32.80
2018-01-25T14:52:03.402Z,33.27
2018-01-25T14:54:30.838Z,33.60
2018-01-25T14:56:57.502Z,34.20
2018-01-25T14:59:24.963Z,34.00
2018-01-25T15:01:52.362Z,33.77
2018-01-25T15:04:19.035Z,30.80
2018-01-25T15:06:45.747Z,29.80
2018-01-25T15:09:12.461Z,28.60
2018-01-25T15:11:39.165Z,29.23
2018-01-25T15:14:05.866Z,26.77
2018-01-25T15:16:32.549Z,29.03
2018-01-25T15:18:59.283Z,27.63
2018-01-25T15:21:25.989Z,29.00
2018-01-25T15:23:52.704Z,26.03
2018-01-25T15:26:19.401Z,28.43
2018-01-25T15:28:46.068Z,26.30
2018-01-25T15:31:12.762Z,25.23
2018-01-25T15:33:39.484Z,26.43
2018-01-25T15:36:06.894Z,25.87
2018-01-25T15:38:33.586Z,27.70
2018-01-25T15:41:01.008Z,28.27
2018-01-25T15:43:27.753Z,27.37
2018-01-25T15:45:54.464Z,25.13
2018-01-25T15:48:21.179Z,25.90
2018-01-25T15:50:48.643Z,27.33
2018-01-25T15:53:16.102Z,24.73
2018-01-25T15:55:43.528Z,28.43
2018-01-25T15:58:10.231Z,28.13
2018-01-25T16:00:37.008Z,27.50
2018-01-25T16:03:03.683Z,27.40
2018-01-25T16:05:31.158Z,30.50
2018-01-25T16:07:57.887Z,27.97
2018-01-25T16:10:25.332Z,29.65
2018-01-25T16:12:52.056Z,28.60
2018-01-25T16:15:18.727Z,28.47
2018-01-25T16:17:45.432Z,28.50
2018-01-25T16:20:12.148Z,29.25
2018-01-25T16:22:38.947Z,28.27
2018-01-25T16:25:05.676Z,29.90
2018-01-25T16:27:32.386Z,31.05
2018-01-25T16:29:59.150Z,29.00
2018-01-25T16:32:25.894Z,30.75
2018-01-25T16:34:52.564Z,31.12
2018-01-25T16:37:19.255Z,31.50
2018-01-25T16:39:45.961Z,30.62
2018-01-25T16:42:12.691Z,30.93
2018-01-25T16:44:39.382Z,34.78
2018-01-25T16:47:06.060Z,33.00
2018-01-25T16:49:32.717Z,29.63
2018-01-25T16:51:59.498Z,31.57
2018-01-25T16:54:26.946Z,32.30
2018-01-25T16:56:53.702Z,31.58
2018-01-25T16:59:20.405Z,30.70
2018-01-25T17:01:47.133Z,30.52
2018-01-25T17:04:13.832Z,32.20
2018-01-25T17:06:41.278Z,28.65
2018-01-25T17:09:08.031Z,32.75
2018-01-25T17:11:34.769Z,30.00
2018-01-25T17:14:01.467Z,31.95
2018-01-25T17:16:28.216Z,33.45
2018-01-25T17:18:54.869Z,31.30
2018-01-25T17:21:21.639Z,32.20
2018-01-25T17:23:48.347Z,32.33
2018-01-25T17:26:15.047Z,34.80
2018-01-25T17:28:42.534Z,31.37
2018-01-25T17:31:09.241Z,35.30
2018-01-25T17:33:36.005Z,34.13
2018-01-25T17:36:03.491Z,33.58
2018-01-25T17:38:30.750Z,32.25
2018-01-25T17:40:57.460Z,35.78
2018-01-25T17:43:24.960Z,35.35
2018-01-25T17:45:51.691Z,35.53
2018-01-25T17:48:18.416Z,32.97
2018-01-25T17:50:45.887Z,36.50
2018-01-25T17:53:13.405Z,37.33
2018-01-25T17:55:41.018Z,35.58
2018-01-25T17:58:09.158Z,36.33
2018-01-25T18:00:35.981Z,34.45
2018-01-25T18:03:02.683Z,36.10
2018-01-25T18:05:29.412Z,33.80
2018-01-25T18:07:56.855Z,35.80
2018-01-25T18:10:23.606Z,35.90
2018-01-25T18:12:51.134Z,34.17
2018-01-25T18:15:18.018Z,36.92
2018-01-25T18:17:45.586Z,33.33
2018-01-25T18:20:13.030Z,33.92
2018-01-25T18:22:39.747Z,34.05
2018-01-25T18:25:06.453Z,33.22
2018-01-25T18:27:33.159Z,34.25
2018-01-25T18:29:59.881Z,33.45
2018-01-25T18:32:26.642Z,34.17
2018-01-25T18:34:53.382Z,35.85
2018-01-25T18:37:20.118Z,34.13
2018-01-25T18:39:46.818Z,36.63
2018-01-25T18:42:13.532Z,35.45
2018-01-25T18:44:40.253Z,33.38
2018-01-25T18:47:06.950Z,34.58
2018-01-25T18:49:33.638Z,34.08
2018-01-25T18:52:00.336Z,35.60
2018-01-25T18:54:27.064Z,37.45
2018-01-25T18:56:54.506Z,36.58
2018-01-25T18:59:21.355Z,35.17
2018-01-25T19:01:48.008Z,36.97
2018-01-25T19:04:15.433Z,37.53
2018-01-25T19:06:42.135Z,36.92
2018-01-25T19:09:08.833Z,37.00
2018-01-25T19:11:35.540Z,39.10
2018-01-25T19:14:02.315Z,38.30
2018-01-25T19:16:29.018Z,39.97
2018-01-25T19:18:55.867Z,38.67
2018-01-25T19:21:22.545Z,38.47
2018-01-25T19:23:49.266Z,37.30
2018-01-25T19:28:49.421Z,38.70
2018-01-25T19:31:17.100Z,37.95
2018-01-25T19:33:43.875Z,35.67
2018-01-25T19:36:11.350Z,36.25
2018-01-25T19:38:38.029Z,37.50
2018-01-25T19:41:05.231Z,38.30
2018-01-25T19:43:33.693Z,38.75
2018-01-25T19:46:00.355Z,37.80
2018-01-25T19:48:27.966Z,38.92
2018-01-25T19:50:54.821Z,38.13
2018-01-25T19:53:21.713Z,38.03
2018-01-25T19:55:49.185Z,39.55
2018-01-25T19:58:16.635Z,37.92
2018-01-25T20:00:44.141Z,38.17
2018-01-25T20:03:10.954Z,39.58
2018-01-25T20:05:39.515Z,43.58
2018-01-25T20:08:06.341Z,45.22
2018-01-25T20:10:33.592Z,45.40
2018-01-25T20:13:01.276Z,41.90
2018-01-25T20:15:28.017Z,41.65
2018-01-25T20:17:55.000Z,42.17
2018-01-25T20:20:22.714Z,40.42
2018-01-25T20:22:50.542Z,42.92
2018-01-25T20:25:17.352Z,42.25
2018-01-25T20:27:44.218Z,41.03
2018-01-25T20:30:11.702Z,40.58
2018-01-25T20:32:39.186Z,42.20
2018-01-25T20:35:05.851Z,39.78
2018-01-25T20:37:32.600Z,39.95
2018-01-25T20:39:59.304Z,38.13
2018-01-25T20:42:26.280Z,41.13
2018-01-25T20:44:53.015Z,41.83
2018-01-25T20:47:19.798Z,42.80
2018-01-25T20:49:46.961Z,49.42
2018-01-25T20:52:13.940Z,46.40
2018-01-25T20:54:40.760Z,44.78
2018-01-25T20:57:07.398Z,44.90
2018-01-25T20:59:34.225Z,42.70
2018-01-25T21:02:01.130Z,42.03
2018-01-25T21:04:28.159Z,45.88
2018-01-25T21:06:54.929Z,43.05
2018-01-25T21:09:21.854Z,42.85
2018-01-25T21:11:49.285Z,45.30
2018-01-25T21:14:16.303Z,44.25
2018-01-25T21:16:43.022Z,44.17
2018-01-25T21:19:10.478Z,43.63
2018-01-25T21:21:38.000Z,42.08
2018-01-25T21:24:04.869Z,42.83
2018-01-25T21:26:31.735Z,44.92
2018-01-25T21:28:59.214Z,44.05
2018-01-25T21:31:26.127Z,44.70
2018-01-25T21:33:52.951Z,42.97
2018-01-25T21:36:19.654Z,40.95
2018-01-25T21:38:46.393Z,46.40
2018-01-25T21:41:14.362Z,43.97
2018-01-25T21:43:41.074Z,45.22
2018-01-25T21:46:08.602Z,45.55
2018-01-25T21:48:35.308Z,46.75
2018-01-25T21:51:02.828Z,48.13
2018-01-25T21:53:29.600Z,45.47
2018-01-25T21:55:57.111Z,44.65
2018-01-25T21:58:24.034Z,49.85
2018-01-25T22:00:50.782Z,48.25
2018-01-25T22:03:17.455Z,44.90
2018-01-25T22:05:44.178Z,44.38
2018-01-25T22:08:10.866Z,46.15
2018-01-25T22:10:37.555Z,45.22
2018-01-25T22:13:04.481Z,43.63
2018-01-25T22:15:31.987Z,45.65
2018-01-25T22:17:58.678Z,47.35
2018-01-25T22:20:26.192Z,47.00
2018-01-25T22:22:53.810Z,44.22
2018-01-25T22:25:21.266Z,46.20
2018-01-25T22:27:48.785Z,45.92
2018-01-25T22:30:15.706Z,45.40
2018-01-25T22:32:42.387Z,44.75
2018-01-25T22:35:09.102Z,46.78
2018-01-25T22:37:35.826Z,44.80
2018-01-25T22:40:03.574Z,49.08
2018-01-25T22:42:30.239Z,49.72
2018-01-25T22:44:57.724Z,45.30
2018-01-25T22:47:24.485Z,47.03
2018-01-25T22:49:51.186Z,49.47
2018-01-25T22:52:18.622Z,46.30
2018-01-25T22:54:45.379Z,46.17
2018-01-25T22:57:12.801Z,45.30
2018-01-25T22:59:39.490Z,48.25
2018-01-25T23:02:06.947Z,49.70
2018-01-25T23:04:34.391Z,48.65
2018-01-25T23:07:00.998Z,49.40
2018-01-25T23:09:27.785Z,49.03
2018-01-25T23:11:55.237Z,51.08
2018-01-25T23:14:21.916Z,48.92
2018-01-25T23:16:48.679Z,49.33
2018-01-25T23:19:15.396Z,47.60
2018-01-25T23:21:42.095Z,51.72
2018-01-25T23:24:08.903Z,48.92
2018-01-25T23:26:35.582Z,48.87
2018-01-25T23:29:02.258Z,49.22
2018-01-25T23:31:29.678Z,50.42
2018-01-25T23:33:56.312Z,53.25
2018-01-25T23:36:22.965Z,51.78
2018-01-25T23:38:49.644Z,50.83
2018-01-25T23:41:17.103Z,46.35
2018-01-25T23:43:43.834Z,53.85
2018-01-25T23:46:10.518Z,52.17
2018-01-25T23:48:37.181Z,50.10
2018-01-25T23:51:03.965Z,51.05
2018-01-25T23:53:30.656Z,51.78
2018-01-25T23:55:57.373Z,50.47
2018-01-25T23:58:24.835Z,51.90
